Time;durP1;ratioP1;P1;durP2;ratioP2;P2;SDS_P1;SDS_P2;PMS_P1;PMS_P2;Temp;Humidity;BMP_temperature;BMP_pressure;BME280_temperature;BME280_humidity;BME280_pressure;Samples;Min_cycle;Max_cycle;Signal;HPM_P1;HPM_P2
2022/06/02 00:01:22;;;;;;;1.52;0.50;;;14.20;99.90;;;;;;5111095;28;20047;-85
2022/06/02 00:04:16;;;;;;;1.45;0.50;;;14.10;99.90;;;;;;5092733;28;20087;-85
2022/06/02 00:06:58;;;;;;;2.47;0.50;;;14.10;99.90;;;;;;5109567;28;20081;-85
2022/06/02 00:09:39;;;;;;;2.53;0.50;;;14.10;99.90;;;;;;5110915;28;20036;-85
2022/06/02 00:12:24;;;;;;;3.58;0.50;;;14.10;99.90;;;;;;5109935;28;20039;-85
2022/06/02 00:15:16;;;;;;;1.85;0.47;;;14.10;99.90;;;;;;5111705;28;20023;-85
2022/06/02 00:18:08;;;;;;;1.92;0.60;;;14.10;99.90;;;;;;5110688;28;20484;-87
2022/06/02 00:20:39;;;;;;;1.48;0.60;;;14.10;99.90;;;;;;5099198;28;20038;-86
2022/06/02 00:23:26;;;;;;;1.55;0.60;;;14.20;99.90;;;;;;5091527;28;20081;-83
2022/06/02 00:26:00;;;;;;;2.55;0.50;;;14.20;99.90;;;;;;5108925;28;20234;-82
2022/06/02 00:28:31;;;;;;;1.40;0.50;;;14.20;99.90;;;;;;5109695;28;20043;-85
2022/06/02 00:31:02;;;;;;;2.90;0.77;;;14.10;99.90;;;;;;5110522;28;20031;-83
2022/06/02 00:33:44;;;;;;;2.50;0.50;;;14.10;99.90;;;;;;5111288;28;20035;-87
2022/06/02 00:36:47;;;;;;;1.42;0.50;;;14.10;99.90;;;;;;5111077;28;20070;-85
2022/06/02 00:39:17;;;;;;;0.63;0.40;;;14.10;99.90;;;;;;5065322;28;20403;-83
2022/06/02 00:41:49;;;;;;;2.58;0.63;;;14.10;99.90;;;;;;5109028;28;20036;-87
2022/06/02 00:44:39;;;;;;;1.55;0.50;;;14.10;99.90;;;;;;5110830;28;20038;-85
2022/06/02 00:47:28;;;;;;;2.67;0.55;;;14.10;99.90;;;;;;5110213;28;20023;-86
2022/06/02 00:50:06;;;;;;;1.75;0.50;;;14.10;99.90;;;;;;5107082;28;20023;-81
2022/06/02 00:52:44;;;;;;;1.08;0.40;;;14.10;99.90;;;;;;5090528;28;20031;-82
2022/06/02 00:58:43;;;;;;;1.42;0.40;;;14.00;99.90;;;;;;5045700;28;20149;-83
2022/06/02 01:01:14;;;;;;;1.00;0.50;;;13.90;99.90;;;;;;5109309;28;20105;-84
2022/06/02 01:03:43;;;;;;;3.28;0.47;;;13.90;99.90;;;;;;5109029;28;20028;-83
2022/06/02 01:06:19;;;;;;;1.90;0.50;;;14.00;99.90;;;;;;5108817;28;20034;-82
2022/06/02 01:08:54;;;;;;;2.03;0.70;;;14.00;99.90;;;;;;5090649;28;20043;-83
2022/06/02 01:11:31;;;;;;;1.65;0.80;;;14.00;99.90;;;;;;5089840;28;20583;-83
2022/06/02 01:14:25;;;;;;;3.38;0.50;;;14.10;99.90;;;;;;5108175;28;20032;-80
2022/06/02 01:16:59;;;;;;;2.45;0.60;;;14.10;99.90;;;;;;5108294;28;20020;-85
2022/06/02 01:19:44;;;;;;;2.95;0.50;;;14.00;99.90;;;;;;5090706;28;20035;-85
2022/06/02 01:22:25;;;;;;;0.68;0.40;;;14.00;99.90;;;;;;5108272;28;20020;-84
2022/06/02 01:25:24;;;;;;;1.50;0.47;;;13.90;99.90;;;;;;5088785;28;20131;-81
2022/06/02 01:28:32;;;;;;;4.45;0.40;;;13.90;99.90;;;;;;5108363;28;20062;-81
2022/06/02 01:31:26;;;;;;;2.28;0.57;;;13.80;99.90;;;;;;5108191;28;20495;-80
2022/06/02 01:34:24;;;;;;;1.05;0.50;;;13.80;99.90;;;;;;5108093;28;20059;-80
2022/06/02 01:36:50;;;;;;;1.27;0.60;;;13.80;99.90;;;;;;5108328;28;20050;-83
2022/06/02 01:39:18;;;;;;;;;;;13.80;99.90;;;;;;5089088;28;20587;-81
2022/06/02 01:42:21;;;;;;;6.93;1.85;;;13.70;99.90;;;;;;5104470;28;19923;-80
2022/06/02 01:45:15;;;;;;;3.50;0.70;;;13.70;99.90;;;;;;5092400;28;20095;-79
2022/06/02 01:47:43;;;;;;;4.25;0.60;;;13.70;99.90;;;;;;5093124;28;20059;-80
2022/06/02 01:50:39;;;;;;;2.05;0.50;;;13.60;99.90;;;;;;5104536;28;20145;-81
2022/06/02 01:53:50;;;;;;;2.25;0.50;;;13.60;99.90;;;;;;5086532;28;20040;-80
2022/06/02 01:56:39;;;;;;;6.53;0.70;;;13.50;99.90;;;;;;5076097;28;20857;-80
2022/06/02 01:59:29;;;;;;;3.97;0.63;;;13.50;99.90;;;;;;5044938;28;20459;-80
2022/06/02 02:01:57;;;;;;;2.17;0.60;;;13.40;99.90;;;;;;5071491;28;20044;-79
2022/06/02 02:04:50;;;;;;;1.25;0.47;;;13.40;99.90;;;;;;5069484;28;20052;-79
2022/06/02 02:07:54;;;;;;;2.75;0.70;;;13.40;99.90;;;;;;5087915;28;20055;-84
2022/06/02 02:10:23;;;;;;;2.70;0.73;;;13.40;99.90;;;;;;5092126;28;20664;-80
2022/06/02 02:13:10;;;;;;;2.90;0.65;;;13.40;99.90;;;;;;5091364;27;20392;-79
2022/06/02 02:15:39;;;;;;;3.63;0.55;;;13.40;99.90;;;;;;5098204;28;20032;-79
2022/06/02 02:18:24;;;;;;;1.70;0.65;;;13.40;99.90;;;;;;5105055;28;20515;-79
2022/06/02 02:21:11;;;;;;;5.78;1.67;;;13.40;99.90;;;;;;5103618;28;20055;-80
2022/06/02 02:23:56;;;;;;;2.22;0.85;;;13.40;99.90;;;;;;5102545;28;20028;-82
2022/06/02 02:26:39;;;;;;;2.72;0.73;;;13.40;99.90;;;;;;5106006;28;20529;-80
2022/06/02 02:29:17;;;;;;;1.80;0.60;;;13.40;99.90;;;;;;5107600;28;20102;-81
2022/06/02 02:31:59;;;;;;;1.95;0.60;;;13.40;99.90;;;;;;5107047;28;20028;-83
2022/06/02 02:34:51;;;;;;;1.60;0.98;;;13.40;99.90;;;;;;5106723;28;20876;-83
2022/06/02 02:37:40;;;;;;;3.33;0.90;;;13.50;99.90;;;;;;5111725;28;20023;-79
2022/06/02 02:40:30;;;;;;;1.38;0.60;;;13.50;99.90;;;;;;5111171;28;20035;-82
2022/06/02 02:43:13;;;;;;;1.88;0.80;;;13.60;99.90;;;;;;5110183;28;20105;-82
2022/06/02 02:45:55;;;;;;;4.75;0.77;;;13.60;99.90;;;;;;5093518;28;20522;-83
2022/06/02 02:48:39;;;;;;;1.13;0.50;;;13.60;99.90;;;;;;5111675;28;20024;-83
2022/06/02 02:51:21;;;;;;;3.13;0.50;;;13.70;99.90;;;;;;5111263;28;20028;-83
2022/06/02 02:53:51;;;;;;;2.25;0.60;;;13.70;99.90;;;;;;5110978;28;20023;-83
2022/06/02 02:56:26;;;;;;;1.40;0.73;;;13.80;99.90;;;;;;5111119;28;20020;-80
2022/06/02 02:58:59;;;;;;;1.17;0.75;;;13.80;99.90;;;;;;5111815;28;20371;-80
2022/06/02 03:01:45;;;;;;;2.05;0.82;;;13.90;99.90;;;;;;5109484;28;20051;-83
2022/06/02 03:04:11;;;;;;;1.30;0.47;;;13.90;99.90;;;;;;5109893;28;20119;-85
2022/06/02 03:06:41;;;;;;;1.15;0.52;;;13.90;99.90;;;;;;5092209;28;20521;-82
2022/06/02 03:09:10;;;;;;;1.42;0.68;;;13.90;99.90;;;;;;5110527;28;20031;-83
2022/06/02 03:11:50;;;;;;;2.30;0.80;;;14.00;99.90;;;;;;5091852;28;20028;-79
2022/06/02 03:14:53;;;;;;;1.55;0.90;;;14.10;99.90;;;;;;5110489;28;20115;-84
2022/06/02 03:17:25;;;;;;;4.40;0.70;;;14.20;99.90;;;;;;5110409;28;20081;-83
2022/06/02 03:20:12;;;;;;;4.45;0.85;;;14.30;99.90;;;;;;5110723;28;20035;-84
2022/06/02 03:23:07;;;;;;;3.35;0.75;;;14.40;99.90;;;;;;5110323;28;20038;-81
2022/06/02 03:25:42;;;;;;;1.20;0.60;;;14.50;99.90;;;;;;5109211;28;20042;-82
2022/06/02 03:28:40;;;;;;;7.10;0.75;;;14.50;99.90;;;;;;5109360;28;20023;-83
2022/06/02 03:31:15;;;;;;;4.82;0.90;;;14.60;99.90;;;;;;5064717;28;20070;-83
2022/06/02 03:33:53;;;;;;;0.93;0.50;;;14.70;99.90;;;;;;5091911;28;20499;-83
2022/06/02 03:36:37;;;;;;;1.08;0.40;;;14.80;99.90;;;;;;5109808;28;20027;-82
2022/06/02 03:39:09;;;;;;;1.30;0.40;;;14.90;99.90;;;;;;5109759;28;20032;-83
2022/06/02 03:41:44;;;;;;;2.65;0.85;;;14.90;99.90;;;;;;5109556;28;20107;-83
2022/06/02 03:44:15;;;;;;;3.35;1.00;;;15.10;99.90;;;;;;5091860;28;20075;-83
2022/06/02 03:46:50;;;;;;;2.35;0.60;;;15.10;99.90;;;;;;5108380;28;20055;-84
2022/06/02 03:49:33;;;;;;;4.00;0.60;;;15.20;99.90;;;;;;5110264;28;20035;-83
2022/06/02 03:52:23;;;;;;;4.80;0.93;;;15.40;99.90;;;;;;5109202;28;20030;-83
2022/06/02 03:55:28;;;;;;;1.10;0.47;;;15.40;99.90;;;;;;5108697;28;20042;-83
2022/06/02 03:58:06;;;;;;;1.25;0.50;;;15.40;99.90;;;;;;5109791;28;20548;-83
2022/06/02 04:00:49;;;;;;;6.30;0.50;;;15.50;99.90;;;;;;5091718;28;20118;-83
2022/06/02 04:03:58;;;;;;;5.65;0.70;;;15.50;99.90;;;;;;5109562;28;20031;-83
2022/06/02 04:06:27;;;;;;;1.02;0.40;;;15.50;99.90;;;;;;5070659;28;20034;-83
2022/06/02 04:09:11;;;;;;;3.60;1.05;;;15.60;99.90;;;;;;5109135;28;20051;-83
2022/06/02 04:15:27;;;;;;;3.10;0.82;;;15.80;99.90;;;;;;5109000;28;20506;-82
2022/06/02 04:18:18;;;;;;;4.40;0.52;;;16.10;99.90;;;;;;5072669;28;20052;-83
2022/06/02 04:21:08;;;;;;;2.35;0.50;;;16.20;99.90;;;;;;5109513;28;20020;-81
2022/06/02 04:23:49;;;;;;;8.20;0.88;;;16.40;99.90;;;;;;5108830;28;20031;-83
2022/06/02 04:26:32;;;;;;;1.15;0.40;;;16.40;99.90;;;;;;5108158;28;20031;-80
2022/06/02 04:29:20;;;;;;;2.35;0.60;;;16.40;99.90;;;;;;5090237;28;20034;-83
2022/06/02 04:32:01;;;;;;;3.15;0.70;;;16.40;99.90;;;;;;5090506;28;20031;-80
2022/06/02 04:34:55;;;;;;;2.67;0.73;;;16.40;99.90;;;;;;5108956;28;20043;-80
2022/06/02 04:37:30;;;;;;;3.92;0.90;;;16.40;99.90;;;;;;5066564;28;20047;-82
2022/06/02 04:40:34;;;;;;;2.40;0.98;;;16.40;99.90;;;;;;5106721;28;20066;-82
2022/06/02 04:43:14;;;;;;;4.07;0.90;;;16.40;99.90;;;;;;5090549;28;20044;-80
2022/06/02 04:46:04;;;;;;;2.83;0.80;;;16.40;99.90;;;;;;5108242;28;20031;-79
2022/06/02 04:49:16;;;;;;;1.25;0.60;;;16.50;99.90;;;;;;5108765;28;20016;-80
2022/06/02 04:51:47;;;;;;;2.20;0.70;;;16.40;99.90;;;;;;5025251;28;20147;-81
2022/06/02 04:54:36;;;;;;;2.90;0.70;;;16.50;99.90;;;;;;5024557;28;20030;-82
2022/06/02 04:57:40;;;;;;;5.72;0.98;;;16.60;99.90;;;;;;5069889;28;20496;-81
2022/06/02 05:00:23;;;;;;;1.20;0.60;;;16.60;99.90;;;;;;5087964;28;20088;-82
2022/06/02 05:03:13;;;;;;;1.48;0.68;;;16.60;99.90;;;;;;5089958;28;20038;-83
2022/06/02 05:05:39;;;;;;;2.42;1.13;;;16.70;99.90;;;;;;5089992;28;20558;-81
2022/06/02 05:08:04;;;;;;;2.10;0.70;;;16.70;99.90;;;;;;5089392;28;20134;-82
2022/06/02 05:10:49;;;;;;;2.47;1.02;;;16.90;99.90;;;;;;5088904;28;20491;-80
2022/06/02 05:13:23;;;;;;;3.90;1.00;;;17.10;99.90;;;;;;5107991;28;20019;-81
2022/06/02 05:15:55;;;;;;;3.05;0.90;;;17.50;99.90;;;;;;5089242;28;20026;-81
2022/06/02 05:18:43;;;;;;;2.17;0.63;;;17.80;99.90;;;;;;5107925;28;20051;-79
2022/06/02 05:21:14;;;;;;;1.50;0.70;;;18.10;99.90;;;;;;5089340;28;20185;-80
2022/06/02 05:23:59;;;;;;;7.80;1.05;;;18.40;99.90;;;;;;5106805;28;20495;-81
2022/06/02 05:26:40;;;;;;;1.52;0.60;;;18.50;99.90;;;;;;5107736;28;20541;-80
2022/06/02 05:29:24;;;;;;;2.22;1.10;;;18.80;99.90;;;;;;5089723;28;20141;-80
2022/06/02 05:32:33;;;;;;;5.57;0.60;;;19.00;99.90;;;;;;5089412;28;20027;-80
2022/06/02 05:35:30;;;;;;;2.10;0.70;;;19.20;99.90;;;;;;5107630;28;20036;-80
2022/06/02 05:38:20;;;;;;;3.15;0.85;;;19.40;99.90;;;;;;5089160;28;20122;-80
2022/06/02 05:41:32;;;;;;;1.98;0.60;;;19.30;99.90;;;;;;5088830;28;20035;-80
2022/06/02 05:44:10;;;;;;;2.22;0.60;;;19.10;99.90;;;;;;5024420;28;20100;-80
2022/06/02 05:46:42;;;;;;;5.80;0.65;;;19.00;99.90;;;;;;5097091;28;20036;-79
2022/06/02 05:49:07;;;;;;;6.28;1.02;;;18.80;99.90;;;;;;5107700;28;20030;-79
2022/06/02 05:51:38;;;;;;;8.32;1.52;;;18.70;99.90;;;;;;5088914;28;20032;-79
2022/06/02 05:54:29;;;;;;;9.45;2.03;;;18.60;99.90;;;;;;5106493;28;20110;-82
2022/06/02 05:57:18;;;;;;;10.93;2.78;;;18.50;99.90;;;;;;5089237;28;20027;-79
2022/06/02 05:59:44;;;;;;;7.28;0.80;;;18.40;99.90;;;;;;5107572;28;20055;-81
2022/06/02 06:02:39;;;;;;;7.43;1.00;;;18.40;99.90;;;;;;5088271;28;20081;-79
2022/06/02 06:05:17;;;;;;;3.65;0.80;;;18.40;99.90;;;;;;5088615;28;20023;-81
2022/06/02 06:08:03;;;;;;;4.70;0.70;;;18.50;99.90;;;;;;5105850;28;20043;-81
2022/06/02 06:10:31;;;;;;;;;;;18.70;99.90;;;;;;5106289;28;20054;-81
2022/06/02 06:13:12;;;;;;;2.85;0.60;;;18.90;99.90;;;;;;5106976;28;19908;-80
2022/06/02 06:15:44;;;;;;;3.55;0.70;;;19.10;99.90;;;;;;5106271;28;20027;-80
2022/06/02 06:18:15;;;;;;;4.53;0.63;;;19.50;99.90;;;;;;5088328;28;20042;-81
2022/06/02 06:21:08;;;;;;;5.47;0.55;;;19.80;99.90;;;;;;5107110;28;20028;-80
2022/06/02 06:24:12;;;;;;;4.28;0.80;;;20.30;99.90;;;;;;5106511;28;20084;-80
2022/06/02 06:27:02;;;;;;;5.75;0.77;;;20.80;99.80;;;;;;5088664;28;20055;-80
2022/06/02 06:29:43;;;;;;;2.55;0.50;;;21.40;98.50;;;;;;5106924;28;20032;-80
2022/06/02 06:32:28;;;;;;;2.00;0.60;;;21.80;96.70;;;;;;5106649;28;20031;-80
2022/06/02 06:35:12;;;;;;;1.35;0.43;;;21.90;95.60;;;;;;5088711;28;20067;-80
2022/06/02 06:38:15;;;;;;;1.50;0.60;;;21.80;96.00;;;;;;5088351;28;20055;-80
2022/06/02 06:40:50;;;;;;;2.92;0.63;;;21.70;95.80;;;;;;5106487;28;20158;-79
2022/06/02 06:43:52;;;;;;;4.35;0.82;;;21.50;95.10;;;;;;5088434;28;20096;-80
2022/06/02 06:46:20;;;;;;;2.47;0.65;;;21.30;95.70;;;;;;5105306;28;20038;-80
2022/06/02 06:49:00;;;;;;;1.58;0.50;;;21.20;96.70;;;;;;5106331;28;20023;-80
2022/06/02 06:51:49;;;;;;;2.65;0.70;;;21.10;98.30;;;;;;5106468;28;20695;-80
2022/06/02 06:54:38;;;;;;;1.77;0.50;;;21.10;99.00;;;;;;5104913;28;20077;-80
2022/06/02 06:57:12;;;;;;;1.98;0.68;;;21.10;99.90;;;;;;5106846;28;20031;-80
2022/06/02 06:59:50;;;;;;;1.35;0.60;;;21.30;99.70;;;;;;5105693;28;20469;-80
2022/06/02 07:02:44;;;;;;;3.97;0.70;;;21.50;98.40;;;;;;5104631;28;20444;-80
2022/06/02 07:05:33;;;;;;;3.20;0.63;;;21.80;97.80;;;;;;5088136;28;20360;-79
2022/06/02 07:08:18;;;;;;;4.57;0.77;;;21.90;96.60;;;;;;5105789;28;20085;-80
2022/06/02 07:10:54;;;;;;;1.45;0.60;;;22.00;95.80;;;;;;5106406;28;20077;-81
2022/06/02 07:13:41;;;;;;;3.17;0.80;;;22.20;95.20;;;;;;5106465;28;20024;-78
2022/06/02 07:16:19;;;;;;;2.70;0.50;;;22.20;93.20;;;;;;5105752;28;20058;-79
2022/06/02 07:19:14;;;;;;;1.20;0.50;;;22.50;94.90;;;;;;5088127;28;20088;-80
2022/06/02 07:21:56;;;;;;;4.53;0.75;;;22.80;94.30;;;;;;5089795;28;20024;-80
2022/06/02 07:24:44;;;;;;;1.63;0.70;;;23.00;92.10;;;;;;5107719;28;20188;-79
2022/06/02 07:27:29;;;;;;;3.53;0.70;;;23.50;90.30;;;;;;5109828;28;20161;-79
2022/06/02 07:29:55;;;;;;;4.60;0.75;;;24.30;82.30;;;;;;5109221;28;20016;-80
2022/06/02 07:32:45;;;;;;;4.53;0.70;;;25.00;78.40;;;;;;5109285;28;20051;-80
2022/06/02 07:35:23;;;;;;;3.65;0.93;;;25.30;66.60;;;;;;5109666;28;20035;-80
2022/06/02 07:38:07;;;;;;;5.03;0.63;;;25.30;61.60;;;;;;5109055;28;20028;-80
2022/06/02 07:40:51;;;;;;;2.50;0.55;;;25.40;60.10;;;;;;5091815;28;20111;-80
2022/06/02 07:43:39;;;;;;;1.63;0.65;;;25.30;50.90;;;;;;5109818;28;20491;-80
2022/06/02 07:46:37;;;;;;;1.88;0.68;;;25.00;51.40;;;;;;5109317;28;20051;-80
2022/06/02 07:49:37;;;;;;;1.85;0.70;;;24.70;49.40;;;;;;5057860;28;20031;-80
2022/06/02 07:52:21;;;;;;;1.88;0.70;;;24.30;51.00;;;;;;5090733;28;20031;-79
2022/06/02 07:55:11;;;;;;;1.98;0.70;;;24.10;54.40;;;;;;5109074;28;20027;-81
2022/06/02 07:58:03;;;;;;;4.03;1.00;;;24.10;54.60;;;;;;5109612;28;20066;-80
2022/06/02 08:00:35;;;;;;;2.35;0.63;;;23.90;56.30;;;;;;5091154;28;20381;-80
2022/06/02 08:03:16;;;;;;;3.53;0.60;;;23.80;60.00;;;;;;5108624;28;20407;-79
2022/06/02 08:05:51;;;;;;;1.67;0.55;;;23.80;58.70;;;;;;5090880;28;20035;-80
2022/06/02 08:08:20;;;;;;;4.57;0.50;;;23.90;58.70;;;;;;5108405;28;20051;-80
2022/06/02 08:11:10;;;;;;;1.52;0.60;;;23.80;57.80;;;;;;5090723;28;20028;-80
2022/06/02 08:13:59;;;;;;;2.95;0.68;;;23.90;59.20;;;;;;5109149;28;20051;-80
2022/06/02 08:16:30;;;;;;;4.88;0.70;;;23.90;60.30;;;;;;5108652;28;20073;-80
2022/06/02 08:19:13;;;;;;;1.98;0.57;;;24.10;59.20;;;;;;5090517;28;20054;-79
2022/06/02 08:21:42;;;;;;;4.88;0.63;;;24.10;57.50;;;;;;5107872;28;20020;-80
2022/06/02 08:24:55;;;;;;;3.58;0.55;;;24.30;57.40;;;;;;5108425;28;20035;-80
2022/06/02 08:27:41;;;;;;;2.20;0.60;;;24.60;55.90;;;;;;5025354;28;20257;-80
2022/06/02 08:30:15;;;;;;;;;;;25.10;57.10;;;;;;5025827;28;20033;-80
2022/06/02 08:33:03;;;;;;;1.38;0.60;;;25.70;55.20;;;;;;5079676;28;20193;-80
2022/06/02 08:35:50;;;;;;;7.60;0.60;;;26.20;53.70;;;;;;5090292;28;20031;-81
2022/06/02 08:38:34;;;;;;;2.83;0.50;;;26.70;53.90;;;;;;5108186;28;20043;-80
2022/06/02 08:41:37;;;;;;;2.08;1.00;;;26.90;50.10;;;;;;5108230;28;20035;-81
2022/06/02 08:44:40;;;;;;;3.33;1.17;;;26.90;49.50;;;;;;5090122;28;20054;-80
2022/06/02 08:47:30;;;;;;;2.20;0.80;;;27.20;49.90;;;;;;5090363;28;20122;-82
2022/06/02 08:50:28;;;;;;;1.08;0.77;;;27.60;49.30;;;;;;5106924;28;20031;-81
2022/06/02 08:53:28;;;;;;;1.80;0.75;;;28.60;48.50;;;;;;5073125;28;20313;-81
2022/06/02 08:56:06;;;;;;;1.27;0.60;;;29.70;41.90;;;;;;5089883;28;20499;-81
2022/06/02 08:58:50;;;;;;;2.33;1.23;;;30.30;43.00;;;;;;5106356;28;20577;-80
2022/06/02 09:01:28;;;;;;;3.17;1.10;;;31.10;43.90;;;;;;5107798;28;20038;-81
2022/06/02 09:04:06;;;;;;;6.07;0.90;;;31.50;40.00;;;;;;5107650;28;20220;-82
2022/06/02 09:06:49;;;;;;;2.10;0.75;;;31.60;39.10;;;;;;5088853;28;20032;-80
2022/06/02 09:09:46;;;;;;;4.10;0.93;;;31.60;36.90;;;;;;5107734;28;20071;-80
2022/06/02 09:12:11;;;;;;;;;;;31.50;39.80;;;;;;5107769;28;20119;-81
2022/06/02 09:14:40;;;;;;;;;;;31.10;38.00;;;;;;5090342;28;20018;-80
2022/06/02 09:17:26;;;;;;;3.55;1.02;;;30.50;37.70;;;;;;5107154;28;19958;-80
2022/06/02 09:19:57;;;;;;;4.60;0.90;;;30.10;39.10;;;;;;5107101;28;20050;-80
2022/06/02 09:23:07;;;;;;;2.22;1.00;;;30.10;38.70;;;;;;5107237;28;20024;-81
2022/06/02 09:26:00;;;;;;;2.78;0.90;;;30.50;40.00;;;;;;5069171;28;20510;-81
2022/06/02 09:28:46;;;;;;;2.78;1.10;;;30.60;38.70;;;;;;5107183;28;20812;-81
2022/06/02 09:31:36;;;;;;;2.15;1.00;;;30.70;39.20;;;;;;5088683;28;20054;-80
2022/06/02 09:34:17;;;;;;;2.25;0.98;;;30.80;38.20;;;;;;5106996;28;20063;-81
2022/06/02 09:37:09;;;;;;;5.95;1.10;;;30.90;38.70;;;;;;5106976;28;20038;-81
2022/06/02 09:39:44;;;;;;;3.58;1.30;;;30.60;39.80;;;;;;5095872;28;20035;-80
2022/06/02 09:42:13;;;;;;;;;;;30.20;39.30;;;;;;5107415;28;20058;-80
2022/06/02 09:44:48;;;;;;;1.98;1.02;;;29.90;41.40;;;;;;5088817;28;19907;-80
2022/06/02 09:47:47;;;;;;;6.55;0.88;;;29.70;39.30;;;;;;5088340;28;20399;-81
2022/06/02 09:50:48;;;;;;;2.53;1.30;;;29.70;39.20;;;;;;5107177;28;20031;-80
2022/06/02 09:53:31;;;;;;;3.65;1.20;;;30.10;39.50;;;;;;5088773;28;20023;-80
2022/06/02 09:56:29;;;;;;;2.70;1.30;;;30.10;39.20;;;;;;5088792;28;20031;-80
2022/06/02 09:59:23;;;;;;;7.43;1.58;;;30.20;40.20;;;;;;5033305;28;20041;-80
2022/06/02 10:02:11;;;;;;;5.80;1.65;;;30.00;40.50;;;;;;5106616;28;20110;-80
2022/06/02 10:04:56;;;;;;;4.30;1.13;;;29.70;40.80;;;;;;5088145;28;20093;-80
2022/06/02 10:07:45;;;;;;;1.95;1.30;;;29.60;41.10;;;;;;5064077;28;20101;-80
2022/06/02 10:10:23;;;;;;;2.58;1.50;;;29.40;42.10;;;;;;5088491;28;20034;-81
2022/06/02 10:13:26;;;;;;;4.90;1.60;;;29.50;41.00;;;;;;5088143;28;20027;-80
2022/06/02 10:16:14;;;;;;;3.20;1.23;;;29.70;42.20;;;;;;5088327;28;20024;-80
2022/06/02 10:18:58;;;;;;;2.58;1.30;;;30.00;41.00;;;;;;5106674;28;20056;-80
2022/06/02 10:21:24;;;;;;;2.33;1.05;;;30.10;41.80;;;;;;5087881;28;20491;-81
2022/06/02 10:24:10;;;;;;;3.33;0.85;;;30.10;41.20;;;;;;5106389;28;20062;-80
2022/06/02 10:27:08;;;;;;;2.35;1.27;;;30.20;43.30;;;;;;5106335;28;20038;-80
2022/06/02 10:30:03;;;;;;;6.10;1.73;;;30.30;42.50;;;;;;5032901;28;20480;-80
2022/06/02 10:32:46;;;;;;;2.67;1.10;;;30.30;42.40;;;;;;5106036;28;20276;-80
2022/06/02 10:35:38;;;;;;;4.90;1.08;;;30.30;40.90;;;;;;5106213;28;20024;-80
2022/06/02 10:38:09;;;;;;;2.22;1.05;;;29.70;42.10;;;;;;5106653;28;20138;-80
2022/06/02 10:40:53;;;;;;;1.30;1.08;;;29.50;43.60;;;;;;5106195;28;20046;-81
2022/06/02 10:43:48;;;;;;;1.65;0.90;;;29.50;43.30;;;;;;5105988;28;20031;-80
2022/06/02 10:46:51;;;;;;;3.67;1.27;;;29.40;43.50;;;;;;5087452;28;20111;-80
2022/06/02 10:49:30;;;;;;;2.72;1.23;;;29.30;44.70;;;;;;5106441;28;20023;-80
2022/06/02 10:52:30;;;;;;;2.65;1.10;;;29.10;44.80;;;;;;5106114;28;20027;-80
2022/06/02 10:55:24;;;;;;;4.03;1.55;;;28.90;44.90;;;;;;5088231;28;20031;-80
2022/06/02 10:57:52;;;;;;;3.30;1.40;;;28.80;45.20;;;;;;5110127;28;20092;-80
2022/06/02 11:00:22;;;;;;;2.85;1.50;;;28.90;46.30;;;;;;5110063;28;20396;-80
2022/06/02 11:03:26;;;;;;;1.73;1.10;;;29.00;45.20;;;;;;5091663;28;20035;-79
2022/06/02 11:06:25;;;;;;;3.00;1.40;;;29.20;44.20;;;;;;5091605;28;20078;-80
2022/06/02 11:09:09;;;;;;;4.10;1.50;;;29.10;44.80;;;;;;5091354;28;20099;-79
2022/06/02 11:11:54;;;;;;;3.13;1.45;;;29.20;44.70;;;;;;5109944;28;20032;-80
2022/06/02 11:14:57;;;;;;;2.88;1.08;;;29.20;45.10;;;;;;5109728;28;20038;-80
2022/06/02 11:17:43;;;;;;;2.05;1.08;;;29.40;46.20;;;;;;5109573;28;20120;-80
2022/06/02 11:20:43;;;;;;;2.38;1.15;;;29.60;45.50;;;;;;5109767;28;20023;-80
2022/06/02 11:23:23;;;;;;;2.67;1.58;;;29.70;44.40;;;;;;5065966;28;20036;-80
2022/06/02 11:26:08;;;;;;;2.85;1.27;;;29.80;44.70;;;;;;5108360;28;20031;-81
2022/06/02 11:28:55;;;;;;;2.20;1.10;;;29.70;44.50;;;;;;5109728;28;20077;-80
2022/06/02 11:31:41;;;;;;;3.30;1.38;;;29.60;44.60;;;;;;5109525;28;20020;-80
2022/06/02 11:34:25;;;;;;;1.50;1.02;;;29.40;45.60;;;;;;5091435;28;20030;-81
2022/06/02 11:37:19;;;;;;;1.50;0.82;;;29.40;44.90;;;;;;5090960;28;20040;-80
2022/06/02 11:39:59;;;;;;;2.60;1.10;;;29.50;46.30;;;;;;5090900;28;20515;-79
2022/06/02 11:43:04;;;;;;;6.90;1.00;;;29.40;46.30;;;;;;5091533;28;20035;-80
2022/06/02 11:46:11;;;;;;;3.20;1.30;;;29.40;46.10;;;;;;5109123;28;20019;-81
2022/06/02 11:49:13;;;;;;;6.20;1.10;;;29.30;43.30;;;;;;5107703;28;20028;-80
2022/06/02 11:52:00;;;;;;;2.85;1.30;;;28.80;45.50;;;;;;5107516;28;20028;-80
2022/06/02 11:54:53;;;;;;;1.63;1.20;;;28.60;45.80;;;;;;5090722;28;20631;-79
2022/06/02 11:57:40;;;;;;;2.05;1.00;;;28.60;46.50;;;;;;5094592;28;20039;-80
2022/06/02 12:00:31;;;;;;;3.25;1.98;;;28.40;46.60;;;;;;5109090;28;20031;-80
2022/06/02 12:03:11;;;;;;;2.17;1.67;;;28.20;48.00;;;;;;5109079;28;20484;-80
2022/06/02 12:05:55;;;;;;;1.92;1.10;;;28.20;48.70;;;;;;5109037;28;20024;-80
2022/06/02 12:08:27;;;;;;;4.60;1.30;;;28.30;49.00;;;;;;5089334;28;20048;-81
2022/06/02 12:11:28;;;;;;;3.40;1.20;;;28.50;48.00;;;;;;5091053;28;20062;-81
2022/06/02 12:14:18;;;;;;;1.88;1.13;;;28.60;46.90;;;;;;5022563;28;20560;-80
2022/06/02 12:16:55;;;;;;;1.52;1.02;;;28.60;47.70;;;;;;5089704;28;20100;-81
2022/06/02 12:19:21;;;;;;;1.92;1.20;;;28.50;47.60;;;;;;5108546;28;20040;-80
2022/06/02 12:22:04;;;;;;;2.63;1.30;;;28.50;48.00;;;;;;5090523;28;20076;-80
2022/06/02 12:24:59;;;;;;;2.38;1.17;;;28.40;48.20;;;;;;5109775;28;20049;-80
2022/06/02 12:28:04;;;;;;;2.45;0.98;;;28.50;49.20;;;;;;5108667;28;20032;-80
2022/06/02 12:31:11;;;;;;;1.95;1.05;;;28.60;48.30;;;;;;5108765;28;20103;-81
2022/06/02 12:33:47;;;;;;;2.15;1.20;;;28.70;48.30;;;;;;5025373;28;20037;-81
2022/06/02 12:36:13;;;;;;;;;;;28.70;48.70;;;;;;5100289;28;20058;-80
2022/06/02 12:39:06;;;;;;;2.87;1.10;;;28.70;46.50;;;;;;5108466;28;20380;-80
2022/06/02 12:41:43;;;;;;;1.80;1.05;;;28.50;47.70;;;;;;5108362;28;20249;-80
2022/06/02 12:44:46;;;;;;;1.65;0.80;;;28.20;48.80;;;;;;5106725;28;20046;-79
2022/06/02 12:47:33;;;;;;;2.63;1.30;;;28.20;48.80;;;;;;5107486;28;20044;-79
2022/06/02 12:50:32;;;;;;;3.17;1.00;;;28.30;49.20;;;;;;5106539;28;20067;-79
2022/06/02 12:53:16;;;;;;;3.92;1.38;;;28.40;48.60;;;;;;5107468;28;20062;-78
2022/06/02 12:56:01;;;;;;;2.90;1.08;;;28.20;49.20;;;;;;5108271;27;20123;-80
2022/06/02 12:58:48;;;;;;;2.47;1.00;;;28.30;48.90;;;;;;5092825;28;20085;-78
2022/06/02 13:01:20;;;;;;;1.85;0.90;;;28.20;48.90;;;;;;5107025;28;20481;-78
2022/06/02 13:03:58;;;;;;;3.08;0.80;;;28.00;48.20;;;;;;5106530;28;20035;-78
2022/06/02 13:06:48;;;;;;;4.18;1.23;;;28.10;50.00;;;;;;5094824;28;20035;-79
2022/06/02 13:09:59;;;;;;;2.38;0.82;;;28.20;48.40;;;;;;5106848;28;20071;-79
2022/06/02 13:12:44;;;;;;;4.55;1.08;;;28.30;49.50;;;;;;5105410;28;20084;-78
2022/06/02 13:15:16;;;;;;;3.30;0.85;;;28.50;47.50;;;;;;5088128;28;20138;-79
2022/06/02 13:18:21;;;;;;;2.25;1.13;;;28.60;48.10;;;;;;5106444;28;20075;-79
2022/06/02 13:21:05;;;;;;;3.08;0.77;;;28.80;47.20;;;;;;5103909;28;20035;-78
2022/06/02 13:24:17;;;;;;;1.27;0.70;;;28.80;48.00;;;;;;5089873;28;20503;-79
2022/06/02 13:27:24;;;;;;;3.08;1.10;;;28.70;48.00;;;;;;5105804;28;20054;-78
2022/06/02 13:30:04;;;;;;;3.03;0.85;;;28.70;47.00;;;;;;5073389;28;20416;-79
2022/06/02 13:32:51;;;;;;;1.45;1.00;;;28.80;47.10;;;;;;5106273;28;20047;-80
2022/06/02 13:35:51;;;;;;;3.08;0.95;;;28.70;47.70;;;;;;5105199;28;20054;-79
2022/06/02 13:38:47;;;;;;;11.88;1.65;;;28.40;47.10;;;;;;5104571;28;20500;-79
2022/06/02 13:41:53;;;;;;;2.03;1.00;;;28.30;47.50;;;;;;5106759;28;20081;-79
2022/06/02 13:44:49;;;;;;;1.92;1.05;;;28.10;47.70;;;;;;5083404;28;20586;-79
2022/06/02 13:47:24;;;;;;;;;;;28.00;48.90;;;;;;5106618;28;20027;-79
2022/06/02 13:50:14;;;;;;;2.83;0.90;;;27.90;47.70;;;;;;5107251;28;20364;-80
2022/06/02 13:53:21;;;;;;;1.50;0.82;;;27.90;49.30;;;;;;5106677;28;20500;-79
2022/06/02 13:59:08;;;;;;;2.35;1.23;;;27.70;49.80;;;;;;5106914;28;20046;-80
2022/06/02 14:01:55;;;;;;;1.85;0.65;;;27.70;50.20;;;;;;5105130;28;20030;-80
2022/06/02 14:04:58;;;;;;;3.10;0.95;;;27.90;48.90;;;;;;5106172;28;20032;-80
2022/06/02 14:07:43;;;;;;;1.50;0.60;;;28.00;50.30;;;;;;5106850;28;20062;-79
2022/06/02 14:10:45;;;;;;;1.17;0.57;;;28.00;50.20;;;;;;5088600;28;20026;-80
2022/06/02 14:14:11;;;;;;;3.90;0.52;;;28.30;50.80;;;;;;5106941;28;20111;-79
2022/06/02 14:17:18;;;;;;;1.50;0.70;;;28.50;50.70;;;;;;5066102;28;20042;-79
2022/06/02 14:20:07;;;;;;;2.72;0.50;;;28.70;49.50;;;;;;5106521;28;20102;-79
2022/06/02 14:22:59;;;;;;;2.05;0.93;;;28.80;48.60;;;;;;5104746;28;20038;-80
2022/06/02 14:25:57;;;;;;;3.67;0.70;;;28.90;47.40;;;;;;5105441;28;20032;-79
2022/06/02 14:28:51;;;;;;;1.92;0.80;;;28.90;47.00;;;;;;5088467;28;20019;-79
2022/06/02 14:31:32;;;;;;;1.15;0.60;;;28.90;46.50;;;;;;5105770;28;20028;-80
2022/06/02 14:34:10;;;;;;;2.90;0.95;;;28.70;47.10;;;;;;5106187;28;20023;-80